Time;durP1;ratioP1;P1;durP2;ratioP2;P2;SDS_P1;SDS_P2;PMS_P1;PMS_P2;Temp;Humidity;BMP_temperature;BMP_pressure;BME280_temperature;BME280_humidity;BME280_pressure;Samples;Min_cycle;Max_cycle;Signal;HPM_P1;HPM_P2
2023/10/29 00:01:10;;;;;;;9.32;1.77;;;;;;;;;;4996407;28;20478;-77
2023/10/29 00:03:35;;;;;;;4.93;1.60;;;;;;;;;;4996176;28;20113;-77
2023/10/29 00:06:01;;;;;;;3.67;1.57;;;;;;;;;;4996165;28;20030;-76
2023/10/29 00:08:27;;;;;;;2.88;1.50;;;;;;;;;;4979020;28;20260;-78
2023/10/29 00:10:52;;;;;;;3.00;1.73;;;;;;;;;;4996477;28;20026;-77
2023/10/29 00:13:17;;;;;;;6.03;1.75;;;;;;;;;;4996629;28;20050;-77
2023/10/29 00:15:42;;;;;;;2.92;1.58;;;;;;;;;;4996694;28;20044;-77
2023/10/29 00:18:12;;;;;;;3.05;1.40;;;;;;;;;;4996252;28;20493;-77
2023/10/29 00:20:39;;;;;;;3.35;1.50;;;;;;;;;;4979725;28;20027;-77
2023/10/29 00:23:04;;;;;;;3.25;1.48;;;;;;;;;;4996508;28;20018;-77
2023/10/29 00:25:29;;;;;;;3.08;1.20;;;;;;;;;;4996568;28;20041;-77
2023/10/29 00:27:55;;;;;;;2.93;1.53;;;;;;;;;;4979489;28;20023;-77
2023/10/29 00:30:20;;;;;;;2.70;1.35;;;;;;;;;;4997043;28;20279;-77
2023/10/29 00:32:45;;;;;;;3.47;1.52;;;;;;;;;;4979384;28;20019;-76
2023/10/29 00:35:10;;;;;;;3.85;1.20;;;;;;;;;;4978612;28;20072;-75
2023/10/29 00:37:38;;;;;;;2.20;1.30;;;;;;;;;;4979219;28;20018;-77
2023/10/29 00:40:10;;;;;;;4.90;1.50;;;;;;;;;;4978705;28;20104;-77
2023/10/29 00:42:35;;;;;;;3.00;1.40;;;;;;;;;;4978621;28;20496;-76
2023/10/29 00:45:01;;;;;;;3.45;1.60;;;;;;;;;;4997020;28;20106;-76
2023/10/29 00:47:27;;;;;;;3.83;1.60;;;;;;;;;;4996772;28;20018;-75
2023/10/29 00:49:53;;;;;;;9.40;1.17;;;;;;;;;;4996395;28;20061;-77
2023/10/29 00:52:21;;;;;;;1.40;1.10;;;;;;;;;;4978897;28;20030;-77
2023/10/29 00:54:47;;;;;;;3.63;1.40;;;;;;;;;;4996523;28;20022;-78
2023/10/29 00:57:12;;;;;;;2.00;1.00;;;;;;;;;;4996140;28;20030;-76
2023/10/29 00:59:37;;;;;;;3.30;1.25;;;;;;;;;;4993809;28;20029;-75
2023/10/29 01:02:03;;;;;;;3.53;1.02;;;;;;;;;;4995390;28;20109;-77
2023/10/29 01:04:28;;;;;;;4.22;1.30;;;;;;;;;;4978125;28;20061;-76
2023/10/29 01:06:54;;;;;;;3.75;1.42;;;;;;;;;;4979364;28;20030;-78
2023/10/29 01:09:19;;;;;;;3.75;1.27;;;;;;;;;;4996990;28;20378;-77
2023/10/29 01:11:46;;;;;;;4.65;1.08;;;;;;;;;;4979828;28;20121;-77
2023/10/29 01:14:11;;;;;;;3.50;1.20;;;;;;;;;;4996928;28;20018;-74
2023/10/29 01:16:36;;;;;;;2.92;1.60;;;;;;;;;;4995505;28;20029;-77
2023/10/29 01:19:02;;;;;;;5.68;1.65;;;;;;;;;;4977695;28;20029;-77
2023/10/29 01:21:29;;;;;;;4.45;1.02;;;;;;;;;;4978149;28;20113;-77
2023/10/29 01:23:55;;;;;;;5.30;1.50;;;;;;;;;;4994730;28;20026;-77
2023/10/29 01:26:20;;;;;;;5.13;1.65;;;;;;;;;;4994620;28;20096;-77
2023/10/29 01:28:45;;;;;;;5.22;1.40;;;;;;;;;;4994589;28;20068;-77
2023/10/29 01:31:11;;;;;;;4.30;1.45;;;;;;;;;;4994627;28;20042;-77
2023/10/29 01:33:37;;;;;;;2.85;1.50;;;;;;;;;;4995068;28;20026;-76
2023/10/29 01:36:03;;;;;;;4.38;1.40;;;;;;;;;;4995356;28;20022;-77
2023/10/29 01:38:28;;;;;;;3.97;1.50;;;;;;;;;;4977464;28;20407;-75
2023/10/29 01:40:53;;;;;;;2.75;1.30;;;;;;;;;;4995581;28;20389;-77
2023/10/29 01:43:19;;;;;;;3.53;1.50;;;;;;;;;;4995604;28;20070;-77
2023/10/29 01:45:44;;;;;;;6.15;1.48;;;;;;;;;;4976705;28;20026;-78
2023/10/29 01:48:09;;;;;;;7.97;1.95;;;;;;;;;;4994263;28;20026;-76
2023/10/29 01:50:37;;;;;;;5.45;1.38;;;;;;;;;;4994664;28;20026;-78
2023/10/29 01:53:03;;;;;;;3.28;1.33;;;;;;;;;;4994436;28;20025;-76
2023/10/29 01:55:28;;;;;;;1.90;1.20;;;;;;;;;;4977058;28;20077;-77
2023/10/29 01:57:53;;;;;;;6.28;1.52;;;;;;;;;;4976910;28;20032;-77
2023/10/29 02:00:24;;;;;;;6.10;1.48;;;;;;;;;;4994237;28;20081;-77
2023/10/29 02:02:51;;;;;;;3.15;1.33;;;;;;;;;;4995076;28;20113;-77
2023/10/29 02:05:17;;;;;;;2.55;1.08;;;;;;;;;;4995026;28;20504;-77
2023/10/29 02:07:42;;;;;;;2.92;1.30;;;;;;;;;;4995517;28;20109;-77
2023/10/29 02:10:07;;;;;;;2.03;1.20;;;;;;;;;;4977470;28;20482;-77
2023/10/29 02:12:33;;;;;;;3.72;1.23;;;;;;;;;;4976731;28;20110;-77
2023/10/29 02:14:58;;;;;;;2.60;1.10;;;;;;;;;;4994070;28;20077;-77
2023/10/29 02:17:25;;;;;;;4.25;1.30;;;;;;;;;;4994176;28;20018;-77
2023/10/29 02:19:51;;;;;;;3.35;1.58;;;;;;;;;;4995287;28;20025;-78
2023/10/29 02:22:16;;;;;;;3.40;1.40;;;;;;;;;;4995289;28;20147;-77
2023/10/29 02:24:42;;;;;;;2.47;1.30;;;;;;;;;;4993993;28;20031;-76
2023/10/29 02:27:07;;;;;;;3.00;1.63;;;;;;;;;;4976396;28;20117;-77
2023/10/29 02:29:32;;;;;;;5.22;1.77;;;;;;;;;;4976731;28;20169;-77
2023/10/29 02:31:57;;;;;;;6.57;1.67;;;;;;;;;;4993760;28;20030;-76
2023/10/29 02:34:22;;;;;;;6.07;1.70;;;;;;;;;;4993701;28;20030;-77
2023/10/29 02:36:48;;;;;;;6.03;2.00;;;;;;;;;;4993642;28;20114;-77
2023/10/29 02:39:13;;;;;;;6.95;1.98;;;;;;;;;;4992589;28;20428;-77
2023/10/29 02:41:38;;;;;;;3.00;1.60;;;;;;;;;;4993462;28;20117;-77
2023/10/29 02:44:03;;;;;;;3.08;1.70;;;;;;;;;;4994143;28;20022;-77
2023/10/29 02:46:30;;;;;;;6.32;2.00;;;;;;;;;;4994034;28;20034;-77
2023/10/29 02:48:56;;;;;;;5.70;2.10;;;;;;;;;;4994018;28;20457;-77
2023/10/29 02:51:21;;;;;;;3.63;1.70;;;;;;;;;;4980574;28;20072;-77
2023/10/29 02:53:46;;;;;;;4.78;1.48;;;;;;;;;;4999165;28;20034;-77
2023/10/29 02:56:11;;;;;;;5.55;1.73;;;;;;;;;;4999447;28;20385;-77
2023/10/29 02:58:37;;;;;;;3.55;1.52;;;;;;;;;;4999378;28;20038;-77
2023/10/29 03:01:07;;;;;;;3.30;1.65;;;;;;;;;;4999460;28;20034;-77
2023/10/29 03:03:32;;;;;;;4.30;1.75;;;;;;;;;;4998574;28;20495;-77
2023/10/29 03:05:57;;;;;;;5.28;1.80;;;;;;;;;;4998254;28;20044;-77
2023/10/29 03:08:23;;;;;;;4.65;1.58;;;;;;;;;;4998291;28;20061;-77
2023/10/29 03:10:50;;;;;;;4.60;1.77;;;;;;;;;;4997935;28;20110;-77
2023/10/29 03:13:15;;;;;;;2.83;1.50;;;;;;;;;;4998080;28;20034;-77
2023/10/29 03:15:40;;;;;;;2.85;1.58;;;;;;;;;;4997873;28;20572;-77
2023/10/29 03:18:06;;;;;;;2.13;1.30;;;;;;;;;;4997693;28;20109;-77
2023/10/29 03:20:31;;;;;;;8.07;1.83;;;;;;;;;;4998296;28;20022;-77
2023/10/29 03:22:56;;;;;;;4.65;2.05;;;;;;;;;;4997979;28;20069;-74
2023/10/29 03:25:22;;;;;;;2.40;1.40;;;;;;;;;;4981128;28;20079;-77
2023/10/29 03:27:48;;;;;;;7.20;1.42;;;;;;;;;;4997947;28;20030;-74
2023/10/29 03:30:14;;;;;;;4.43;1.48;;;;;;;;;;4998497;28;20026;-77
2023/10/29 03:32:40;;;;;;;3.25;1.20;;;;;;;;;;4998894;28;20023;-76
2023/10/29 03:35:05;;;;;;;5.63;1.30;;;;;;;;;;4999054;28;20026;-77
2023/10/29 03:37:30;;;;;;;3.05;1.17;;;;;;;;;;4998700;28;20065;-74
2023/10/29 03:39:56;;;;;;;2.65;1.10;;;;;;;;;;4981299;28;20037;-78
2023/10/29 03:42:21;;;;;;;3.10;1.25;;;;;;;;;;4998598;28;20022;-77
2023/10/29 03:44:46;;;;;;;5.75;1.50;;;;;;;;;;4998088;28;20481;-77
2023/10/29 03:47:12;;;;;;;7.32;1.60;;;;;;;;;;4998198;28;20030;-77
2023/10/29 03:49:37;;;;;;;4.15;1.38;;;;;;;;;;4999095;28;20113;-77
2023/10/29 03:52:02;;;;;;;2.85;1.25;;;;;;;;;;4997765;28;20026;-77
2023/10/29 03:54:28;;;;;;;2.42;1.20;;;;;;;;;;4997448;28;20049;-76
2023/10/29 03:56:53;;;;;;;2.83;1.30;;;;;;;;;;4997573;28;20019;-77
2023/10/29 03:59:18;;;;;;;3.53;1.30;;;;;;;;;;4997117;28;20052;-76
2023/10/29 04:01:43;;;;;;;5.97;1.50;;;;;;;;;;4996636;28;20022;-77
2023/10/29 04:04:09;;;;;;;3.00;1.20;;;;;;;;;;4996944;28;20112;-77
2023/10/29 04:06:34;;;;;;;6.72;1.25;;;;;;;;;;4979223;28;20026;-76
2023/10/29 04:08:59;;;;;;;3.85;1.35;;;;;;;;;;4979653;28;20034;-77
2023/10/29 04:11:24;;;;;;;3.95;1.20;;;;;;;;;;4996615;28;20397;-77
2023/10/29 04:13:50;;;;;;;4.80;1.30;;;;;;;;;;4981464;28;20105;-78
2023/10/29 04:16:15;;;;;;;3.95;1.45;;;;;;;;;;4980464;28;20040;-75
2023/10/29 04:18:40;;;;;;;5.70;1.50;;;;;;;;;;4980689;28;20046;-77
2023/10/29 04:21:06;;;;;;;2.90;1.40;;;;;;;;;;4980420;28;20266;-75
2023/10/29 04:23:31;;;;;;;6.43;1.45;;;;;;;;;;4997261;28;20033;-77
2023/10/29 04:25:56;;;;;;;3.53;1.30;;;;;;;;;;4996962;28;20054;-77
2023/10/29 04:28:22;;;;;;;3.08;1.35;;;;;;;;;;4997960;28;20112;-83
2023/10/29 04:30:48;;;;;;;3.22;1.55;;;;;;;;;;4998692;28;20072;-78
2023/10/29 04:33:13;;;;;;;2.67;1.10;;;;;;;;;;5000032;28;20133;-78
2023/10/29 04:35:38;;;;;;;3.88;1.50;;;;;;;;;;5000008;28;20034;-78
2023/10/29 04:38:04;;;;;;;4.03;1.50;;;;;;;;;;4998994;28;20026;-78
2023/10/29 04:40:29;;;;;;;2.28;1.50;;;;;;;;;;4998371;28;20034;-78
2023/10/29 04:42:54;;;;;;;2.72;1.27;;;;;;;;;;4999074;28;20490;-75
2023/10/29 04:45:20;;;;;;;4.65;1.23;;;;;;;;;;4998759;28;20029;-77
2023/10/29 04:47:45;;;;;;;4.13;1.40;;;;;;;;;;4999556;28;20026;-78
2023/10/29 04:50:10;;;;;;;5.05;1.05;;;;;;;;;;4998565;28;20077;-78
2023/10/29 04:52:35;;;;;;;3.92;1.38;;;;;;;;;;4997777;28;20521;-79
2023/10/29 04:55:01;;;;;;;2.25;1.08;;;;;;;;;;4998525;28;20030;-78
2023/10/29 04:57:29;;;;;;;2.17;1.00;;;;;;;;;;4997675;28;20401;-79
2023/10/29 04:59:55;;;;;;;4.18;1.27;;;;;;;;;;4981556;28;20029;-79
2023/10/29 05:02:21;;;;;;;3.90;1.15;;;;;;;;;;4998413;28;20085;-77
2023/10/29 05:04:47;;;;;;;3.75;1.17;;;;;;;;;;4981357;28;20022;-78
2023/10/29 05:07:12;;;;;;;1.30;0.90;;;;;;;;;;4997972;28;20529;-76
2023/10/29 05:09:37;;;;;;;2.20;1.10;;;;;;;;;;4998433;28;20058;-78
2023/10/29 05:12:03;;;;;;;2.42;1.08;;;;;;;;;;4980614;28;20031;-78
2023/10/29 05:14:28;;;;;;;2.03;1.00;;;;;;;;;;4979752;28;20025;-78
2023/10/29 05:16:54;;;;;;;2.22;0.88;;;;;;;;;;4998720;28;20034;-78
2023/10/29 05:19:20;;;;;;;2.35;1.02;;;;;;;;;;4999067;28;20080;-78
2023/10/29 05:21:45;;;;;;;4.13;1.20;;;;;;;;;;4998007;28;20026;-78
2023/10/29 05:24:10;;;;;;;6.40;1.00;;;;;;;;;;4997829;28;20521;-78
2023/10/29 05:26:39;;;;;;;4.82;1.20;;;;;;;;;;4981052;28;20022;-78
2023/10/29 05:29:04;;;;;;;4.97;1.00;;;;;;;;;;4981654;28;20038;-78
2023/10/29 05:31:30;;;;;;;2.53;1.00;;;;;;;;;;4998196;28;20061;-78
2023/10/29 05:33:56;;;;;;;2.38;1.20;;;;;;;;;;4998556;28;20023;-76
2023/10/29 05:36:21;;;;;;;2.42;0.90;;;;;;;;;;4997827;28;20092;-78
2023/10/29 05:38:46;;;;;;;2.30;1.00;;;;;;;;;;4997718;28;20054;-78
2023/10/29 05:41:11;;;;;;;2.00;0.85;;;;;;;;;;4997622;28;20022;-77
2023/10/29 05:43:37;;;;;;;2.03;0.90;;;;;;;;;;4979541;28;20057;-78
2023/10/29 05:46:02;;;;;;;2.00;0.95;;;;;;;;;;4997124;28;20034;-78
2023/10/29 05:48:28;;;;;;;4.00;1.10;;;;;;;;;;4997141;28;20049;-76
2023/10/29 05:50:53;;;;;;;3.25;0.95;;;;;;;;;;4997968;28;20033;-78
2023/10/29 05:53:18;;;;;;;3.58;0.98;;;;;;;;;;4980153;28;20022;-78
2023/10/29 05:55:43;;;;;;;3.55;0.95;;;;;;;;;;4997803;28;20030;-76
2023/10/29 05:58:08;;;;;;;1.70;1.02;;;;;;;;;;4979964;28;20026;-76
2023/10/29 06:00:34;;;;;;;3.70;0.87;;;;;;;;;;4997214;28;20077;-78
2023/10/29 06:02:59;;;;;;;3.40;1.00;;;;;;;;;;4996787;28;20295;-78
2023/10/29 06:05:24;;;;;;;3.78;1.23;;;;;;;;;;4997449;28;20446;-78
2023/10/29 06:07:50;;;;;;;3.30;1.20;;;;;;;;;;4997830;28;20030;-78
2023/10/29 06:10:15;;;;;;;4.20;0.98;;;;;;;;;;4979139;28;20029;-75
2023/10/29 06:12:41;;;;;;;4.80;1.20;;;;;;;;;;4997130;28;20145;-78
2023/10/29 06:15:10;;;;;;;1.63;0.95;;;;;;;;;;4997705;28;20022;-78
2023/10/29 06:17:36;;;;;;;4.35;1.05;;;;;;;;;;4979447;28;20033;-78
2023/10/29 06:20:06;;;;;;;3.65;1.02;;;;;;;;;;4997182;28;20018;-78
2023/10/29 06:22:32;;;;;;;1.58;0.82;;;;;;;;;;4978954;28;20022;-78
2023/10/29 06:24:58;;;;;;;2.85;0.95;;;;;;;;;;4979115;28;20048;-78
2023/10/29 06:27:23;;;;;;;2.33;1.02;;;;;;;;;;4997005;28;20026;-77
2023/10/29 06:29:48;;;;;;;2.87;1.10;;;;;;;;;;4980346;28;20599;-78
2023/10/29 06:32:14;;;;;;;3.13;0.98;;;;;;;;;;4997276;28;20264;-78
2023/10/29 06:34:39;;;;;;;3.83;1.00;;;;;;;;;;4979800;28;20117;-76
2023/10/29 06:37:04;;;;;;;2.97;0.90;;;;;;;;;;4997043;28;20389;-78
2023/10/29 06:39:30;;;;;;;3.10;0.90;;;;;;;;;;4979619;28;20037;-78
2023/10/29 06:41:55;;;;;;;1.80;0.80;;;;;;;;;;4979211;28;20029;-78
2023/10/29 06:44:21;;;;;;;1.73;0.93;;;;;;;;;;4996920;28;20034;-78
2023/10/29 06:46:46;;;;;;;3.40;0.95;;;;;;;;;;4996168;28;20256;-75
2023/10/29 06:49:12;;;;;;;5.57;0.90;;;;;;;;;;4979657;28;20033;-78
2023/10/29 06:51:38;;;;;;;2.80;0.90;;;;;;;;;;4997081;28;20044;-78
2023/10/29 06:54:03;;;;;;;2.35;1.13;;;;;;;;;;4997060;28;20030;-78
2023/10/29 06:56:28;;;;;;;2.50;1.00;;;;;;;;;;4996811;28;20034;-78
2023/10/29 06:58:54;;;;;;;2.78;0.90;;;;;;;;;;4996639;28;20026;-78
2023/10/29 07:01:19;;;;;;;1.98;0.90;;;;;;;;;;4979369;28;20034;-78
2023/10/29 07:03:45;;;;;;;2.03;1.00;;;;;;;;;;4996663;28;20036;-78
2023/10/29 07:06:11;;;;;;;3.38;1.10;;;;;;;;;;4997231;28;20030;-77
2023/10/29 07:08:37;;;;;;;1.80;0.90;;;;;;;;;;4979913;28;20030;-78
2023/10/29 07:11:04;;;;;;;1.60;0.80;;;;;;;;;;4997161;28;20080;-78
2023/10/29 07:13:30;;;;;;;2.90;1.02;;;;;;;;;;4979247;28;20485;-78
2023/10/29 07:15:55;;;;;;;1.17;0.77;;;;;;;;;;4997510;28;20030;-78
2023/10/29 07:18:22;;;;;;;3.65;1.00;;;;;;;;;;4997335;28;20466;-76
2023/10/29 07:20:50;;;;;;;2.33;0.88;;;;;;;;;;4996683;28;20023;-78
2023/10/29 07:23:15;;;;;;;2.38;1.08;;;;;;;;;;4996715;28;20022;-76
2023/10/29 07:25:40;;;;;;;3.03;0.98;;;;;;;;;;4979184;28;20089;-78
2023/10/29 07:28:06;;;;;;;2.27;1.00;;;;;;;;;;4996701;28;20026;-78
2023/10/29 07:30:31;;;;;;;2.42;1.42;;;;;;;;;;4996322;28;20252;-78
2023/10/29 07:32:56;;;;;;;3.28;1.20;;;;;;;;;;4994740;28;20022;-77
2023/10/29 07:35:21;;;;;;;3.67;1.33;;;;;;;;;;4993956;28;20138;-78
2023/10/29 07:37:47;;;;;;;2.13;1.10;;;;;;;;;;4979009;28;20259;-76
2023/10/29 07:40:12;;;;;;;2.95;1.00;;;;;;;;;;4997334;28;20113;-76
2023/10/29 07:42:37;;;;;;;2.00;1.10;;;;;;;;;;4997388;28;20031;-78
2023/10/29 07:45:03;;;;;;;1.92;0.90;;;;;;;;;;4997516;28;20025;-77
2023/10/29 07:47:28;;;;;;;4.30;1.33;;;;;;;;;;4996948;28;20034;-78
2023/10/29 07:49:54;;;;;;;1.85;1.10;;;;;;;;;;4997871;28;20026;-79
2023/10/29 07:52:20;;;;;;;1.98;1.17;;;;;;;;;;4997126;28;20034;-77
2023/10/29 07:54:45;;;;;;;2.55;1.10;;;;;;;;;;4980230;28;20029;-77
2023/10/29 07:57:10;;;;;;;1.75;1.05;;;;;;;;;;4997232;28;20026;-78
2023/10/29 07:59:36;;;;;;;2.10;1.05;;;;;;;;;;4997706;28;20531;-78
2023/10/29 08:02:01;;;;;;;5.72;1.23;;;;;;;;;;4997082;28;20022;-78
2023/10/29 08:04:28;;;;;;;2.67;0.90;;;;;;;;;;4996845;28;20026;-77
2023/10/29 08:06:53;;;;;;;1.98;1.08;;;;;;;;;;4996686;28;20057;-77
2023/10/29 08:09:18;;;;;;;5.38;1.20;;;;;;;;;;4979433;28;20022;-78
2023/10/29 08:11:44;;;;;;;3.00;1.30;;;;;;;;;;4980522;28;20028;-77
2023/10/29 08:14:09;;;;;;;2.67;1.25;;;;;;;;;;4998161;28;20030;-76
2023/10/29 08:16:34;;;;;;;2.33;1.52;;;;;;;;;;4996962;28;20025;-77
2023/10/29 08:18:59;;;;;;;4.28;1.30;;;;;;;;;;4998837;28;20041;-77
2023/10/29 08:21:25;;;;;;;2.83;1.23;;;;;;;;;;4981857;28;20031;-79
2023/10/29 08:23:54;;;;;;;4.43;1.50;;;;;;;;;;4999660;28;20022;-79
2023/10/29 08:26:19;;;;;;;4.88;1.40;;;;;;;;;;4998857;28;20030;-78
2023/10/29 08:28:45;;;;;;;4.10;1.20;;;;;;;;;;4999004;28;20029;-79
2023/10/29 08:31:10;;;;;;;2.65;1.40;;;;;;;;;;4981589;28;20054;-78
2023/10/29 08:33:36;;;;;;;2.63;1.30;;;;;;;;;;4997283;28;20029;-76
2023/10/29 08:36:01;;;;;;;2.20;1.20;;;;;;;;;;4996355;28;20022;-77
2023/10/29 08:38:26;;;;;;;2.22;1.00;;;;;;;;;;4996812;28;20096;-79
2023/10/29 08:40:52;;;;;;;3.05;1.13;;;;;;;;;;4997306;28;20046;-78
2023/10/29 08:43:17;;;;;;;1.80;1.17;;;;;;;;;;4982479;28;20026;-79
2023/10/29 08:45:42;;;;;;;2.97;1.30;;;;;;;;;;4999188;28;20022;-79
2023/10/29 08:48:10;;;;;;;2.97;1.17;;;;;;;;;;4980473;28;20386;-79
2023/10/29 08:50:35;;;;;;;1.83;1.10;;;;;;;;;;4982001;28;20036;-79
2023/10/29 08:53:00;;;;;;;3.28;1.10;;;;;;;;;;4998405;28;20438;-77
2023/10/29 08:55:26;;;;;;;2.65;1.10;;;;;;;;;;4981351;28;20569;-78
2023/10/29 08:57:51;;;;;;;3.50;1.20;;;;;;;;;;4980546;28;20023;-78
2023/10/29 09:00:18;;;;;;;2.13;1.00;;;;;;;;;;4996878;28;20045;-77
2023/10/29 09:02:43;;;;;;;1.95;1.00;;;;;;;;;;4997870;28;20026;-79
2023/10/29 09:05:08;;;;;;;1.80;1.02;;;;;;;;;;4998336;28;20037;-79
2023/10/29 09:07:34;;;;;;;1.63;0.90;;;;;;;;;;4998482;28;20094;-78
2023/10/29 09:09:59;;;;;;;3.72;1.00;;;;;;;;;;4997300;28;20042;-78
2023/10/29 09:12:25;;;;;;;1.38;1.00;;;;;;;;;;4997609;28;20023;-79
2023/10/29 09:14:51;;;;;;;2.40;1.10;;;;;;;;;;4980044;28;20077;-79
2023/10/29 09:17:16;;;;;;;3.20;1.20;;;;;;;;;;4997927;28;20023;-78
2023/10/29 09:19:41;;;;;;;2.15;1.00;;;;;;;;;;4997690;28;20110;-79
2023/10/29 09:22:07;;;;;;;1.98;1.00;;;;;;;;;;4979178;28;20026;-78
2023/10/29 09:24:32;;;;;;;1.65;1.08;;;;;;;;;;4996998;28;20065;-79
2023/10/29 09:26:57;;;;;;;2.45;1.30;;;;;;;;;;4980463;28;20026;-78
2023/10/29 09:29:23;;;;;;;1.50;0.98;;;;;;;;;;4997260;28;20027;-76
2023/10/29 09:31:50;;;;;;;4.53;1.20;;;;;;;;;;4996734;28;20440;-77
2023/10/29 09:34:16;;;;;;;1.83;1.10;;;;;;;;;;4978676;28;20030;-77
2023/10/29 09:36:43;;;;;;;5.35;1.02;;;;;;;;;;4995409;28;20030;-77
2023/10/29 09:39:08;;;;;;;3.38;1.10;;;;;;;;;;4998428;28;20022;-78
2023/10/29 09:41:35;;;;;;;2.08;1.02;;;;;;;;;;4979349;28;20022;-77
2023/10/29 09:44:01;;;;;;;2.55;0.95;;;;;;;;;;4996090;28;20088;-76
2023/10/29 09:46:30;;;;;;;2.17;0.88;;;;;;;;;;4993525;28;20028;-77
2023/10/29 09:48:56;;;;;;;2.65;1.10;;;;;;;;;;4994163;28;20034;-77
2023/10/29 09:51:22;;;;;;;1.38;0.90;;;;;;;;;;4994415;28;20061;-77
2023/10/29 09:53:49;;;;;;;2.28;1.10;;;;;;;;;;4994362;28;20049;-77
2023/10/29 09:56:15;;;;;;;3.08;1.10;;;;;;;;;;4977029;28;20030;-77
2023/10/29 09:58:41;;;;;;;2.50;1.20;;;;;;;;;;4994281;28;20033;-76
2023/10/29 10:01:07;;;;;;;2.42;1.40;;;;;;;;;;4994480;28;20022;-77
2023/10/29 10:03:33;;;;;;;2.85;1.50;;;;;;;;;;4994834;28;20026;-78
2023/10/29 10:05:58;;;;;;;2.65;1.20;;;;;;;;;;4993072;28;20034;-77
2023/10/29 10:08:28;;;;;;;2.53;1.00;;;;;;;;;;4994093;28;20031;-76
2023/10/29 10:10:55;;;;;;;3.15;0.90;;;;;;;;;;4994529;28;20156;-76
2023/10/29 10:13:37;;;;;;;1.52;0.93;;;;;;;;;;4976430;28;20482;-77
2023/10/29 10:16:10;;;;;;;3.70;1.40;;;;;;;;;;4995419;28;20033;-78
2023/10/29 10:18:48;;;;;;;3.27;1.23;;;;;;;;;;4978262;28;20420;-78
2023/10/29 10:21:15;;;;;;;2.33;1.20;;;;;;;;;;4977869;28;20022;-77
2023/10/29 10:24:06;;;;;;;4.38;1.05;;;;;;;;;;4977815;28;20401;-78
2023/10/29 10:26:36;;;;;;;4.15;1.25;;;;;;;;;;4992017;28;20520;-78
2023/10/29 10:29:06;;;;;;;3.13;0.98;;;;;;;;;;4994111;28;20116;-78
2023/10/29 10:31:33;;;;;;;4.93;1.13;;;;;;;;;;4994459;28;20058;-78
2023/10/29 10:34:10;;;;;;;2.65;1.00;;;;;;;;;;4977742;28;20034;-77
2023/10/29 10:36:35;;;;;;;2.78;1.08;;;;;;;;;;4994628;28;20023;-78
2023/10/29 10:39:00;;;;;;;1.58;1.02;;;;;;;;;;4977913;28;20045;-77
2023/10/29 10:41:38;;;;;;;1.98;0.93;;;;;;;;;;4995640;28;20022;-78
2023/10/29 10:44:25;;;;;;;2.47;1.02;;;;;;;;;;4994560;28;20023;-78
2023/10/29 10:46:56;;;;;;;2.05;1.20;;;;;;;;;;4995675;28;20034;-78
2023/10/29 10:49:22;;;;;;;4.60;1.30;;;;;;;;;;4996398;28;20033;-78
2023/10/29 10:51:49;;;;;;;4.65;1.10;;;;;;;;;;4977899;28;20026;-78
2023/10/29 10:54:19;;;;;;;4.30;1.38;;;;;;;;;;4977548;28;20493;-77
2023/10/29 10:56:45;;;;;;;5.10;1.20;;;;;;;;;;4994636;28;20495;-78
2023/10/29 10:59:10;;;;;;;2.13;1.20;;;;;;;;;;4994288;28;20034;-77
2023/10/29 11:01:38;;;;;;;2.20;1.13;;;;;;;;;;4996458;28;20033;-79
2023/10/29 11:04:05;;;;;;;2.13;1.20;;;;;;;;;;4980744;28;20586;-78
2023/10/29 11:06:31;;;;;;;4.25;1.20;;;;;;;;;;4979801;28;20038;-79
2023/10/29 11:08:59;;;;;;;1.92;1.13;;;;;;;;;;4997183;28;20030;-79
2023/10/29 11:11:28;;;;;;;2.20;1.10;;;;;;;;;;4980552;28;20057;-77
2023/10/29 11:14:08;;;;;;;1.70;1.05;;;;;;;;;;4983508;28;20031;-81
2023/10/29 11:16:33;;;;;;;1.63;0.98;;;;;;;;;;4983704;28;20023;-79
2023/10/29 11:18:58;;;;;;;3.65;1.20;;;;;;;;;;5000837;28;20079;-79
2023/10/29 11:21:32;;;;;;;2.85;1.23;;;;;;;;;;4983057;28;20084;-78
2023/10/29 11:24:22;;;;;;;2.53;1.08;;;;;;;;;;5001553;28;20061;-81
2023/10/29 11:26:47;;;;;;;2.28;1.20;;;;;;;;;;4983440;28;20038;-79
2023/10/29 11:29:40;;;;;;;2.03;1.30;;;;;;;;;;5001305;28;20019;-79
2023/10/29 11:32:23;;;;;;;1.80;1.23;;;;;;;;;;4983580;28;20026;-79
2023/10/29 11:35:14;;;;;;;2.17;1.00;;;;;;;;;;5001605;28;20018;-79
2023/10/29 11:37:43;;;;;;;2.60;1.17;;;;;;;;;;5002242;28;20053;-77
2023/10/29 11:40:24;;;;;;;2.05;1.02;;;;;;;;;;5000621;28;20113;-78
2023/10/29 11:42:53;;;;;;;3.95;1.00;;;;;;;;;;5000165;28;20062;-78
2023/10/29 11:45:27;;;;;;;2.42;1.13;;;;;;;;;;4984140;28;20058;-79
2023/10/29 11:48:17;;;;;;;0.98;0.85;;;;;;;;;;5000656;28;20073;-78
2023/10/29 11:51:05;;;;;;;0.82;0.80;;;;;;;;;;5002576;28;20485;-79
2023/10/29 11:53:31;;;;;;;1.20;0.73;;;;;;;;;;4984810;28;20026;-79
2023/10/29 11:56:03;;;;;;;1.88;0.90;;;;;;;;;;4984959;28;20101;-79
2023/10/29 11:58:28;;;;;;;1.88;0.90;;;;;;;;;;5002488;28;20034;-78
2023/10/29 12:00:54;;;;;;;1.40;0.90;;;;;;;;;;5000600;28;20022;-78
2023/10/29 12:03:20;;;;;;;2.45;1.10;;;;;;;;;;5000301;28;20390;-78
2023/10/29 12:05:55;;;;;;;2.13;1.00;;;;;;;;;;5000009;28;20026;-79
2023/10/29 12:08:21;;;;;;;2.80;0.95;;;;;;;;;;4983206;28;20041;-78
2023/10/29 12:10:47;;;;;;;3.58;0.90;;;;;;;;;;5000776;28;20061;-79
2023/10/29 12:13:13;;;;;;;1.30;0.82;;;;;;;;;;5000802;28;20018;-78
2023/10/29 12:15:39;;;;;;;2.17;0.88;;;;;;;;;;4984457;28;20026;-79
2023/10/29 12:18:04;;;;;;;4.95;1.50;;;;;;;;;;4982534;28;20034;-78
2023/10/29 12:20:30;;;;;;;3.95;1.60;;;;;;;;;;4999490;28;20045;-78
2023/10/29 12:22:57;;;;;;;3.03;1.35;;;;;;;;;;5000223;28;20438;-79
2023/10/29 12:25:26;;;;;;;3.10;0.90;;;;;;;;;;4984119;28;20461;-79
2023/10/29 12:27:52;;;;;;;2.15;1.00;;;;;;;;;;5001559;28;20026;-78
2023/10/29 12:30:46;;;;;;;2.10;0.90;;;;;;;;;;5001045;28;20112;-79
2023/10/29 12:33:20;;;;;;;1.13;1.00;;;;;;;;;;4982988;28;20493;-79
2023/10/29 12:35:47;;;;;;;3.88;1.00;;;;;;;;;;5000402;28;20108;-79
2023/10/29 12:38:13;;;;;;;1.92;1.00;;;;;;;;;;5000197;28;20187;-79
2023/10/29 12:41:04;;;;;;;2.28;1.08;;;;;;;;;;5001108;28;20116;-79
2023/10/29 12:43:37;;;;;;;4.80;1.30;;;;;;;;;;5001023;28;20022;-78
2023/10/29 12:46:16;;;;;;;2.17;1.30;;;;;;;;;;5000676;28;20080;-79
2023/10/29 12:49:03;;;;;;;1.48;0.95;;;;;;;;;;4983992;28;20076;-79
2023/10/29 12:51:31;;;;;;;4.63;1.05;;;;;;;;;;4983818;28;20026;-79
2023/10/29 12:54:16;;;;;;;1.90;1.10;;;;;;;;;;4984100;28;20104;-79
2023/10/29 12:56:59;;;;;;;2.03;0.90;;;;;;;;;;5001373;28;20026;-79
2023/10/29 12:59:30;;;;;;;5.25;1.30;;;;;;;;;;4983284;28;20033;-78
2023/10/29 13:01:58;;;;;;;3.05;1.17;;;;;;;;;;4983869;28;20401;-79
2023/10/29 13:04:25;;;;;;;3.13;1.20;;;;;;;;;;4983627;28;20481;-79
2023/10/29 13:06:55;;;;;;;2.47;1.20;;;;;;;;;;5000042;28;20034;-80
2023/10/29 13:09:28;;;;;;;3.47;1.40;;;;;;;;;;4982174;28;20026;-78
2023/10/29 13:11:54;;;;;;;3.00;1.10;;;;;;;;;;5000478;28;20022;-80
2023/10/29 13:14:24;;;;;;;1.40;1.10;;;;;;;;;;4998866;28;20022;-78
2023/10/29 13:16:53;;;;;;;5.40;1.38;;;;;;;;;;4999208;28;20086;-79
2023/10/29 13:19:19;;;;;;;4.25;1.42;;;;;;;;;;4980838;28;20033;-79
2023/10/29 13:21:45;;;;;;;2.20;1.40;;;;;;;;;;4980744;28;20022;-79
2023/10/29 13:24:13;;;;;;;2.63;1.40;;;;;;;;;;4981816;28;20026;-80
2023/10/29 13:26:39;;;;;;;2.47;1.45;;;;;;;;;;4980742;28;20121;-77
2023/10/29 13:29:04;;;;;;;3.80;1.30;;;;;;;;;;4981096;28;20053;-79
2023/10/29 13:31:30;;;;;;;4.20;1.30;;;;;;;;;;4996843;28;20037;-78
2023/10/29 13:33:55;;;;;;;2.00;1.25;;;;;;;;;;4997463;28;20544;-78
2023/10/29 13:36:22;;;;;;;1.80;1.13;;;;;;;;;;4997884;28;20038;-79
2023/10/29 13:38:47;;;;;;;3.13;1.83;;;;;;;;;;4980388;28;20026;-77
2023/10/29 13:41:12;;;;;;;4.68;1.80;;;;;;;;;;4997697;28;20137;-77
2023/10/29 13:43:38;;;;;;;3.90;1.80;;;;;;;;;;4997329;28;20034;-77
2023/10/29 13:46:05;;;;;;;2.58;1.55;;;;;;;;;;4996520;28;20030;-78
2023/10/29 13:48:30;;;;;;;2.70;1.55;;;;;;;;;;4999419;28;20164;-78
2023/10/29 13:50:56;;;;;;;3.05;1.48;;;;;;;;;;4977979;28;20061;-76
2023/10/29 13:53:23;;;;;;;2.53;1.17;;;;;;;;;;4992140;28;20489;-76
2023/10/29 13:55:49;;;;;;;4.05;1.45;;;;;;;;;;4993212;28;20033;-76
2023/10/29 13:58:15;;;;;;;4.47;1.15;;;;;;;;;;4994005;28;20040;-75
2023/10/29 14:00:40;;;;;;;3.42;1.20;;;;;;;;;;4992952;28;20038;-76
2023/10/29 14:03:05;;;;;;;4.43;1.08;;;;;;;;;;4993398;28;20389;-75
2023/10/29 14:05:30;;;;;;;3.73;1.57;;;;;;;;;;4993415;28;20604;-76
2023/10/29 14:07:57;;;;;;;2.53;1.60;;;;;;;;;;4993770;28;20338;-75
2023/10/29 14:10:23;;;;;;;2.83;1.45;;;;;;;;;;4993496;28;20262;-75
2023/10/29 14:12:50;;;;;;;3.92;1.60;;;;;;;;;;4994747;28;20076;-81
2023/10/29 14:15:15;;;;;;;3.22;1.52;;;;;;;;;;4976376;28;20540;-74
2023/10/29 14:17:41;;;;;;;6.82;1.60;;;;;;;;;;4991628;28;20125;-77
2023/10/29 14:20:07;;;;;;;3.78;1.30;;;;;;;;;;4993689;28;20041;-76
2023/10/29 14:22:32;;;;;;;3.92;1.60;;;;;;;;;;4993624;28;20065;-73
2023/10/29 14:24:57;;;;;;;3.63;1.33;;;;;;;;;;4993512;28;20058;-74
2023/10/29 14:27:23;;;;;;;1.93;1.17;;;;;;;;;;4991841;28;20264;-74
2023/10/29 14:29:48;;;;;;;3.08;1.27;;;;;;;;;;4993744;28;20256;-78
2023/10/29 14:32:13;;;;;;;3.30;1.83;;;;;;;;;;4993633;28;20022;-77
2023/10/29 14:34:39;;;;;;;2.65;1.35;;;;;;;;;;4993273;28;20393;-77
2023/10/29 14:37:05;;;;;;;4.63;1.35;;;;;;;;;;4993271;28;20025;-74
2023/10/29 14:39:30;;;;;;;3.17;1.38;;;;;;;;;;4993475;28;20513;-77
2023/10/29 14:41:56;;;;;;;3.78;1.40;;;;;;;;;;4993079;28;20041;-77